Time;durP1;ratioP1;P1;durP2;ratioP2;P2;SDS_P1;SDS_P2;PMS_P1;PMS_P2;Temp;Humidity;BMP_temperature;BMP_pressure;BME280_temperature;BME280_humidity;BME280_pressure;Samples;Min_cycle;Max_cycle;Signal;HPM_P1;HPM_P2
2021/01/25 00:00:35;;;;;;;0.63;0.35;;;;;;;;;;4995182;28;20455;-78
2021/01/25 00:03:00;;;;;;;1.73;0.80;;;;;;;;;;4978176;28;20188;-78
2021/01/25 00:05:26;;;;;;;1.23;0.57;;;;;;;;;;4978115;28;20361;-78
2021/01/25 00:07:51;;;;;;;1.20;0.57;;;;;;;;;;4978717;28;20025;-78
2021/01/25 00:10:17;;;;;;;2.25;0.52;;;;;;;;;;4995068;28;20113;-78
2021/01/25 00:12:42;;;;;;;1.15;0.47;;;;;;;;;;4994640;28;20413;-78
2021/01/25 00:15:08;;;;;;;0.85;0.50;;;;;;;;;;4995013;28;20057;-79
2021/01/25 00:17:34;;;;;;;1.20;0.38;;;;;;;;;;4976912;28;20030;-78
2021/01/25 00:19:59;;;;;;;0.88;0.35;;;;;;;;;;4994298;28;20045;-79
2021/01/25 00:22:27;;;;;;;1.27;0.57;;;;;;;;;;4994407;28;20373;-78
2021/01/25 00:24:52;;;;;;;2.25;0.40;;;;;;;;;;4994800;28;20156;-80
2021/01/25 00:27:18;;;;;;;0.93;0.40;;;;;;;;;;4978068;28;20084;-79
2021/01/25 00:29:46;;;;;;;1.58;0.63;;;;;;;;;;4993784;28;20490;-79
2021/01/25 00:32:11;;;;;;;0.70;0.40;;;;;;;;;;4978009;28;20025;-78
2021/01/25 00:34:40;;;;;;;0.95;0.30;;;;;;;;;;4993714;28;20026;-78
2021/01/25 00:37:05;;;;;;;0.90;0.38;;;;;;;;;;4994374;28;20042;-78
2021/01/25 00:39:31;;;;;;;0.63;0.30;;;;;;;;;;4979199;28;20029;-79
2021/01/25 00:41:56;;;;;;;1.15;0.43;;;;;;;;;;4978994;28;20030;-79
2021/01/25 00:44:22;;;;;;;0.80;0.40;;;;;;;;;;4995896;28;20052;-79
2021/01/25 00:46:47;;;;;;;0.75;0.20;;;;;;;;;;4996145;28;20037;-78
2021/01/25 00:49:13;;;;;;;0.73;0.35;;;;;;;;;;4979531;28;20044;-78
2021/01/25 00:51:38;;;;;;;1.55;0.40;;;;;;;;;;4979817;28;20025;-78
2021/01/25 00:54:03;;;;;;;0.95;0.40;;;;;;;;;;4979212;28;20033;-78
2021/01/25 00:56:29;;;;;;;1.38;0.73;;;;;;;;;;4995658;28;20373;-79
2021/01/25 00:58:54;;;;;;;1.00;0.50;;;;;;;;;;4979071;28;20129;-78
2021/01/25 01:01:20;;;;;;;0.73;0.30;;;;;;;;;;4978841;28;20038;-79
2021/01/25 01:03:45;;;;;;;1.77;0.40;;;;;;;;;;4979369;28;20396;-78
2021/01/25 01:06:11;;;;;;;0.60;0.30;;;;;;;;;;4979036;28;20042;-78
2021/01/25 01:08:36;;;;;;;1.05;0.45;;;;;;;;;;4982828;28;20364;-78
2021/01/25 01:11:01;;;;;;;0.60;0.40;;;;;;;;;;5007349;28;20038;-79
2021/01/25 01:13:27;;;;;;;0.35;0.30;;;;;;;;;;4995085;28;20025;-78
2021/01/25 01:15:52;;;;;;;0.57;0.30;;;;;;;;;;4994419;28;20484;-79
2021/01/25 01:18:18;;;;;;;0.85;0.43;;;;;;;;;;4963157;28;20361;-79
2021/01/25 01:20:43;;;;;;;0.88;0.50;;;;;;;;;;4978938;28;20113;-79
2021/01/25 01:23:09;;;;;;;1.25;0.50;;;;;;;;;;4995286;28;20403;-79
2021/01/25 01:25:34;;;;;;;0.57;0.30;;;;;;;;;;4991927;28;20038;-79
2021/01/25 01:27:59;;;;;;;0.65;0.40;;;;;;;;;;4984112;28;20038;-78
2021/01/25 01:30:25;;;;;;;0.70;0.40;;;;;;;;;;4975208;28;20397;-79
2021/01/25 01:32:51;;;;;;;0.52;0.20;;;;;;;;;;4992064;28;20030;-80
2021/01/25 01:35:16;;;;;;;0.63;0.20;;;;;;;;;;5007757;28;20110;-79
2021/01/25 01:37:42;;;;;;;1.10;0.32;;;;;;;;;;4995023;28;20018;-79
2021/01/25 01:40:09;;;;;;;1.00;0.50;;;;;;;;;;4995187;28;20042;-78
2021/01/25 01:42:35;;;;;;;0.63;0.20;;;;;;;;;;5011513;28;20057;-78
2021/01/25 01:45:03;;;;;;;1.63;0.68;;;;;;;;;;4994409;28;20518;-78
2021/01/25 01:47:28;;;;;;;1.13;0.30;;;;;;;;;;4995172;28;20053;-79
2021/01/25 01:49:54;;;;;;;1.70;0.30;;;;;;;;;;4978306;28;20071;-78
2021/01/25 01:52:19;;;;;;;0.70;0.30;;;;;;;;;;4975042;28;20388;-78
2021/01/25 01:54:46;;;;;;;0.52;0.30;;;;;;;;;;4974592;28;20408;-78
2021/01/25 01:57:11;;;;;;;0.55;0.28;;;;;;;;;;4984482;28;20057;-78
2021/01/25 01:59:37;;;;;;;1.10;0.50;;;;;;;;;;4974333;28;20432;-78
2021/01/25 02:02:02;;;;;;;1.15;0.40;;;;;;;;;;4959009;28;20026;-78
2021/01/25 02:04:28;;;;;;;0.73;0.40;;;;;;;;;;4975026;28;20116;-78
2021/01/25 02:06:54;;;;;;;0.73;0.30;;;;;;;;;;4959414;28;20034;-78
2021/01/25 02:09:19;;;;;;;0.70;0.30;;;;;;;;;;4984269;28;20038;-78
2021/01/25 02:11:45;;;;;;;0.65;0.40;;;;;;;;;;4962239;28;20491;-78
2021/01/25 02:14:10;;;;;;;1.65;0.20;;;;;;;;;;4979559;28;20447;-78
2021/01/25 02:16:40;;;;;;;0.57;0.38;;;;;;;;;;4975162;28;20039;-78
2021/01/25 02:19:06;;;;;;;0.52;0.20;;;;;;;;;;4975052;28;20392;-78
2021/01/25 02:21:32;;;;;;;0.65;0.40;;;;;;;;;;4961162;28;20030;-78
2021/01/25 02:24:18;;;;;;;0.70;0.28;;;;;;;;;;4974759;28;20034;-78
2021/01/25 02:26:56;;;;;;;0.70;0.30;;;;;;;;;;4991395;28;20042;-78
2021/01/25 02:29:21;;;;;;;1.17;0.57;;;;;;;;;;4974375;28;20038;-78
2021/01/25 02:31:47;;;;;;;0.63;0.20;;;;;;;;;;4974812;28;20035;-78
2021/01/25 02:34:13;;;;;;;0.75;0.30;;;;;;;;;;4974704;28;20038;-78
2021/01/25 02:36:38;;;;;;;1.13;0.32;;;;;;;;;;4977099;28;20088;-77
2021/01/25 02:39:04;;;;;;;0.40;0.20;;;;;;;;;;4975639;28;20045;-78
2021/01/25 02:41:29;;;;;;;0.40;0.20;;;;;;;;;;4974079;28;20376;-78
2021/01/25 02:43:56;;;;;;;0.75;0.20;;;;;;;;;;4974164;28;20125;-79
2021/01/25 02:46:22;;;;;;;0.70;0.20;;;;;;;;;;4959058;28;20420;-78
2021/01/25 02:48:47;;;;;;;0.50;0.20;;;;;;;;;;4958587;28;20038;-78
2021/01/25 02:51:13;;;;;;;0.70;0.30;;;;;;;;;;4974583;28;20377;-79
2021/01/25 02:53:39;;;;;;;0.85;0.30;;;;;;;;;;4988328;28;20450;-77
2021/01/25 02:56:05;;;;;;;0.50;0.20;;;;;;;;;;4994141;28;20049;-78
2021/01/25 02:58:30;;;;;;;0.98;0.30;;;;;;;;;;4974506;28;20441;-78
2021/01/25 03:00:56;;;;;;;0.73;0.20;;;;;;;;;;4974405;28;20365;-78
2021/01/25 03:03:21;;;;;;;0.70;0.40;;;;;;;;;;4974369;28;20370;-78
2021/01/25 03:05:47;;;;;;;0.55;0.20;;;;;;;;;;4977233;28;20085;-78
2021/01/25 03:08:12;;;;;;;0.77;0.32;;;;;;;;;;4978778;28;20031;-78
2021/01/25 03:10:38;;;;;;;0.70;0.30;;;;;;;;;;4978079;28;20027;-78
2021/01/25 03:13:04;;;;;;;0.57;0.30;;;;;;;;;;4961769;28;20034;-79
2021/01/25 03:15:29;;;;;;;1.65;0.30;;;;;;;;;;5007534;28;20077;-78
2021/01/25 03:17:55;;;;;;;0.60;0.20;;;;;;;;;;4962096;28;20070;-79
2021/01/25 03:20:20;;;;;;;0.40;0.20;;;;;;;;;;5010775;28;20038;-79
2021/01/25 03:22:46;;;;;;;1.20;0.43;;;;;;;;;;5010573;28;20064;-79
2021/01/25 03:25:12;;;;;;;0.52;0.25;;;;;;;;;;4961758;28;20376;-78
2021/01/25 03:27:37;;;;;;;0.75;0.45;;;;;;;;;;4993764;28;20058;-78
2021/01/25 03:30:08;;;;;;;1.25;0.20;;;;;;;;;;5010198;28;20030;-78
2021/01/25 03:32:34;;;;;;;0.52;0.20;;;;;;;;;;4961837;28;20396;-78
2021/01/25 03:34:59;;;;;;;0.52;0.20;;;;;;;;;;4993923;28;20034;-78
2021/01/25 03:37:25;;;;;;;0.60;0.22;;;;;;;;;;4993918;28;20049;-78
2021/01/25 03:39:50;;;;;;;0.93;0.20;;;;;;;;;;4993968;28;20038;-78
2021/01/25 03:42:15;;;;;;;0.60;0.20;;;;;;;;;;5009962;28;20424;-78
2021/01/25 03:44:41;;;;;;;0.60;0.20;;;;;;;;;;4993581;28;20432;-78
2021/01/25 03:47:06;;;;;;;0.60;0.20;;;;;;;;;;4994016;28;20384;-78
2021/01/25 03:49:32;;;;;;;0.73;0.38;;;;;;;;;;5009924;28;20034;-78
2021/01/25 03:51:57;;;;;;;0.68;0.20;;;;;;;;;;4994158;28;20056;-78
2021/01/25 03:54:23;;;;;;;0.65;0.30;;;;;;;;;;4996747;28;20408;-78
2021/01/25 03:56:48;;;;;;;0.57;0.20;;;;;;;;;;4977136;28;20049;-78
2021/01/25 03:59:14;;;;;;;0.77;0.30;;;;;;;;;;4976821;28;20388;-78
2021/01/25 04:01:39;;;;;;;1.27;0.40;;;;;;;;;;4961319;28;20038;-78
2021/01/25 04:04:04;;;;;;;0.75;0.25;;;;;;;;;;4961020;28;20471;-78
2021/01/25 04:06:30;;;;;;;1.05;0.40;;;;;;;;;;4993460;28;20046;-79
2021/01/25 04:08:56;;;;;;;1.10;0.40;;;;;;;;;;4973829;28;20422;-78
2021/01/25 04:11:21;;;;;;;0.82;0.38;;;;;;;;;;4980305;28;20377;-78
2021/01/25 04:13:46;;;;;;;1.17;0.40;;;;;;;;;;4980440;28;20392;-78
2021/01/25 04:16:12;;;;;;;1.50;0.40;;;;;;;;;;4995762;28;20416;-78
2021/01/25 04:18:37;;;;;;;1.13;0.40;;;;;;;;;;4996500;28;20384;-78
2021/01/25 04:21:03;;;;;;;1.17;0.52;;;;;;;;;;4995986;28;20403;-78
2021/01/25 04:23:28;;;;;;;0.93;0.40;;;;;;;;;;4996293;28;20026;-78
2021/01/25 04:25:54;;;;;;;0.75;0.30;;;;;;;;;;4979749;28;20510;-78
2021/01/25 04:28:19;;;;;;;1.00;0.45;;;;;;;;;;4979109;28;20101;-78
2021/01/25 04:30:45;;;;;;;0.90;0.50;;;;;;;;;;4996069;28;20030;-78
2021/01/25 04:33:10;;;;;;;0.90;0.40;;;;;;;;;;4980131;28;20065;-79
2021/01/25 04:35:39;;;;;;;1.80;0.60;;;;;;;;;;4996368;28;20361;-78
2021/01/25 04:38:06;;;;;;;1.02;0.40;;;;;;;;;;4981322;28;20044;-78
2021/01/25 04:40:32;;;;;;;1.00;0.45;;;;;;;;;;4995847;28;20025;-78
2021/01/25 04:42:57;;;;;;;1.13;0.50;;;;;;;;;;4979896;28;20076;-78
2021/01/25 04:45:22;;;;;;;1.98;0.40;;;;;;;;;;4996065;28;20109;-78
2021/01/25 04:47:48;;;;;;;1.20;0.40;;;;;;;;;;4979677;28;20384;-79
2021/01/25 04:50:16;;;;;;;1.30;0.63;;;;;;;;;;4995876;28;20439;-78
2021/01/25 04:52:42;;;;;;;1.70;0.55;;;;;;;;;;4976562;28;20109;-78
2021/01/25 04:55:08;;;;;;;0.88;0.40;;;;;;;;;;4975902;28;20034;-78
2021/01/25 04:57:33;;;;;;;1.08;0.50;;;;;;;;;;4968967;28;20045;-78
2021/01/25 05:00:01;;;;;;;0.98;0.40;;;;;;;;;;4991239;28;20034;-78
2021/01/25 05:02:27;;;;;;;1.23;0.47;;;;;;;;;;4979567;28;20076;-79
2021/01/25 05:04:52;;;;;;;2.13;0.50;;;;;;;;;;4994469;28;20120;-78
2021/01/25 05:07:17;;;;;;;0.98;0.40;;;;;;;;;;4979258;28;20042;-78
2021/01/25 05:09:43;;;;;;;1.50;0.40;;;;;;;;;;4991548;28;20048;-78
2021/01/25 05:12:08;;;;;;;1.13;0.40;;;;;;;;;;4978802;28;20404;-78
2021/01/25 05:14:41;;;;;;;1.25;0.43;;;;;;;;;;5006807;28;20384;-78
2021/01/25 05:17:11;;;;;;;0.50;0.30;;;;;;;;;;4998886;28;20041;-78
2021/01/25 05:19:37;;;;;;;1.83;0.63;;;;;;;;;;5015076;28;20035;-78
2021/01/25 05:22:13;;;;;;;0.70;0.30;;;;;;;;;;4998322;28;20025;-78
2021/01/25 05:24:49;;;;;;;0.47;0.40;;;;;;;;;;4999217;28;20037;-78
2021/01/25 05:27:24;;;;;;;1.00;0.40;;;;;;;;;;5014894;28;20060;-78
2021/01/25 05:29:50;;;;;;;0.70;0.38;;;;;;;;;;5031108;28;20072;-78
2021/01/25 05:32:18;;;;;;;0.80;0.40;;;;;;;;;;5015024;28;20491;-78
2021/01/25 05:34:47;;;;;;;0.82;0.50;;;;;;;;;;5014869;28;20124;-78
2021/01/25 05:37:16;;;;;;;1.27;0.60;;;;;;;;;;5014976;28;20057;-78
2021/01/25 05:39:46;;;;;;;0.70;0.40;;;;;;;;;;4998527;28;20083;-78
2021/01/25 05:42:12;;;;;;;1.65;0.65;;;;;;;;;;4987913;28;20496;-79
2021/01/25 05:44:37;;;;;;;1.52;0.50;;;;;;;;;;4989839;28;20062;-78
2021/01/25 05:47:04;;;;;;;0.90;0.45;;;;;;;;;;4990030;28;20369;-78
2021/01/25 05:49:30;;;;;;;1.00;0.43;;;;;;;;;;4975146;28;20030;-78
2021/01/25 05:51:55;;;;;;;1.48;0.50;;;;;;;;;;4991054;28;20038;-79
2021/01/25 05:54:24;;;;;;;0.70;0.32;;;;;;;;;;4978209;28;20440;-78
2021/01/25 05:56:49;;;;;;;1.95;0.68;;;;;;;;;;4994743;28;20030;-78
2021/01/25 05:59:15;;;;;;;1.50;0.70;;;;;;;;;;4978267;28;20559;-78
2021/01/25 06:01:41;;;;;;;1.33;0.52;;;;;;;;;;4978129;28;20064;-79
2021/01/25 06:04:07;;;;;;;1.83;0.40;;;;;;;;;;4978247;28;20045;-78
2021/01/25 06:06:33;;;;;;;1.05;0.40;;;;;;;;;;4978595;28;20084;-78
2021/01/25 06:09:14;;;;;;;1.77;0.70;;;;;;;;;;4984536;28;20025;-79
2021/01/25 06:11:40;;;;;;;1.30;0.55;;;;;;;;;;5001807;28;20084;-78
2021/01/25 06:14:18;;;;;;;1.42;0.60;;;;;;;;;;4994292;28;20048;-78
2021/01/25 06:16:48;;;;;;;1.42;0.65;;;;;;;;;;4993922;28;20064;-82
2021/01/25 06:19:13;;;;;;;1.45;0.73;;;;;;;;;;4993456;28;20060;-86
2021/01/25 06:21:40;;;;;;;1.60;0.60;;;;;;;;;;4976648;28;20029;-78
2021/01/25 06:24:07;;;;;;;2.95;0.60;;;;;;;;;;4991582;28;20038;-78
2021/01/25 06:26:33;;;;;;;3.20;0.82;;;;;;;;;;4970912;28;20089;-77
2021/01/25 06:29:02;;;;;;;2.80;0.85;;;;;;;;;;4974860;28;20042;-78
2021/01/25 06:31:28;;;;;;;4.05;1.38;;;;;;;;;;4991649;28;20380;-78
2021/01/25 06:33:53;;;;;;;5.07;1.20;;;;;;;;;;5008820;28;20042;-78
2021/01/25 06:36:19;;;;;;;4.45;1.30;;;;;;;;;;4976020;28;20408;-78
2021/01/25 06:38:47;;;;;;;4.90;1.58;;;;;;;;;;4976655;28;20468;-78
2021/01/25 06:41:13;;;;;;;7.60;1.58;;;;;;;;;;4981090;28;20018;-79
2021/01/25 06:43:43;;;;;;;6.30;1.25;;;;;;;;;;5012850;28;20034;-79
2021/01/25 06:46:09;;;;;;;4.93;1.40;;;;;;;;;;4980703;28;20026;-79
2021/01/25 06:48:35;;;;;;;6.38;1.58;;;;;;;;;;4996388;28;20063;-78
2021/01/25 06:51:01;;;;;;;3.83;1.25;;;;;;;;;;4996553;28;20024;-78
2021/01/25 06:53:27;;;;;;;5.80;1.25;;;;;;;;;;4980720;28;20034;-78
2021/01/25 06:55:59;;;;;;;5.18;1.40;;;;;;;;;;4996378;28;20045;-78
2021/01/25 06:58:29;;;;;;;4.18;1.30;;;;;;;;;;4997866;28;20046;-78
2021/01/25 07:00:54;;;;;;;5.82;1.00;;;;;;;;;;4996564;28;20431;-79
2021/01/25 07:03:20;;;;;;;4.00;0.82;;;;;;;;;;4978989;28;20042;-78
2021/01/25 07:05:50;;;;;;;4.10;1.58;;;;;;;;;;4978778;28;20499;-78
2021/01/25 07:08:19;;;;;;;4.55;1.10;;;;;;;;;;4995849;28;20030;-78
2021/01/25 07:11:04;;;;;;;4.00;1.30;;;;;;;;;;5011240;28;20392;-78
2021/01/25 07:13:33;;;;;;;6.60;1.63;;;;;;;;;;5003659;28;20488;-77
2021/01/25 07:15:59;;;;;;;4.22;1.50;;;;;;;;;;5001035;28;20491;-77
2021/01/25 07:18:25;;;;;;;8.60;4.53;;;;;;;;;;5033779;28;20087;-77
2021/01/25 07:20:55;;;;;;;7.97;2.88;;;;;;;;;;5017291;28;20032;-78
2021/01/25 07:23:21;;;;;;;4.78;2.35;;;;;;;;;;5017319;28;20063;-78
2021/01/25 07:25:56;;;;;;;5.85;2.35;;;;;;;;;;5001037;28;20061;-82
2021/01/25 07:28:54;;;;;;;4.47;2.00;;;;;;;;;;5018262;28;20514;-95
2021/01/25 07:31:19;;;;;;;6.70;2.40;;;;;;;;;;4993534;28;20035;-92
2021/01/25 07:33:47;;;;;;;4.43;1.98;;;;;;;;;;4981775;28;20036;-94
2021/01/25 07:36:12;;;;;;;4.53;1.92;;;;;;;;;;4981578;28;20484;-92
2021/01/25 07:38:38;;;;;;;5.65;2.25;;;;;;;;;;4966874;28;20038;-91
2021/01/25 07:41:03;;;;;;;4.32;1.75;;;;;;;;;;4980413;28;20038;-90
2021/01/25 07:43:29;;;;;;;3.90;2.05;;;;;;;;;;5004571;28;20528;-92
2021/01/25 07:46:08;;;;;;;5.28;2.13;;;;;;;;;;4982442;28;20104;-92
2021/01/25 07:48:48;;;;;;;7.57;2.30;;;;;;;;;;4966308;28;20407;-93
2021/01/25 07:51:24;;;;;;;3.95;2.08;;;;;;;;;;4979705;28;20030;-89
2021/01/25 07:53:53;;;;;;;3.13;1.83;;;;;;;;;;4966326;28;20022;-93
2021/01/25 07:56:25;;;;;;;4.32;1.70;;;;;;;;;;4982924;28;20042;-77
2021/01/25 07:59:07;;;;;;;5.40;2.58;;;;;;;;;;5015592;28;20033;-78
2021/01/25 08:01:35;;;;;;;3.73;2.07;;;;;;;;;;4996572;28;20050;-79
2021/01/25 08:04:02;;;;;;;4.15;1.70;;;;;;;;;;4996477;28;20116;-79
2021/01/25 08:06:36;;;;;;;3.78;2.08;;;;;;;;;;5013014;28;20068;-79
2021/01/25 08:09:05;;;;;;;2.65;1.88;;;;;;;;;;4980324;28;20026;-79
2021/01/25 08:11:31;;;;;;;3.85;2.00;;;;;;;;;;4996257;28;20034;-78
2021/01/25 08:14:31;;;;;;;4.38;1.90;;;;;;;;;;5002958;28;20033;-78
2021/01/25 08:16:59;;;;;;;2.95;1.40;;;;;;;;;;5011215;28;20049;-78
2021/01/25 08:19:28;;;;;;;4.70;1.90;;;;;;;;;;5016086;28;20120;-77
2021/01/25 08:22:02;;;;;;;3.40;1.40;;;;;;;;;;4999957;28;20064;-77
2021/01/25 08:24:28;;;;;;;2.83;1.50;;;;;;;;;;4982707;28;20046;-77
2021/01/25 08:27:04;;;;;;;3.25;1.63;;;;;;;;;;4996383;28;20042;-77
2021/01/25 08:29:29;;;;;;;4.00;1.58;;;;;;;;;;4979937;28;20099;-78
2021/01/25 08:31:54;;;;;;;2.80;1.63;;;;;;;;;;4976230;28;20477;-77
2021/01/25 08:34:23;;;;;;;3.10;1.83;;;;;;;;;;4960283;28;20054;-77
2021/01/25 08:37:12;;;;;;;3.17;1.60;;;;;;;;;;4994196;28;20121;-77
2021/01/25 08:39:47;;;;;;;3.30;1.70;;;;;;;;;;4996435;28;20038;-77
2021/01/25 08:42:24;;;;;;;2.90;2.10;;;;;;;;;;5002080;28;20029;-77
2021/01/25 08:45:05;;;;;;;4.00;1.50;;;;;;;;;;4978095;28;20042;-77
2021/01/25 08:47:31;;;;;;;3.10;1.95;;;;;;;;;;4992567;28;20038;-77
2021/01/25 08:49:57;;;;;;;1.90;1.40;;;;;;;;;;4992509;28;20117;-77
2021/01/25 08:52:30;;;;;;;4.65;1.60;;;;;;;;;;4995921;28;20114;-77
2021/01/25 08:55:08;;;;;;;2.63;1.67;;;;;;;;;;4996524;28;20377;-77
2021/01/25 08:57:36;;;;;;;2.83;1.20;;;;;;;;;;5001102;28;20023;-77
2021/01/25 09:00:15;;;;;;;2.55;1.35;;;;;;;;;;4990864;28;20025;-78
2021/01/25 09:02:40;;;;;;;2.58;1.63;;;;;;;;;;5008610;28;20936;-78
2021/01/25 09:05:06;;;;;;;3.17;1.85;;;;;;;;;;4988853;28;20034;-78
2021/01/25 09:07:32;;;;;;;3.80;1.85;;;;;;;;;;4978257;28;20105;-77
2021/01/25 09:09:57;;;;;;;2.80;1.48;;;;;;;;;;4993678;28;20388;-77
2021/01/25 09:12:23;;;;;;;2.10;1.42;;;;;;;;;;4994086;28;20393;-76
2021/01/25 09:14:48;;;;;;;2.40;1.42;;;;;;;;;;4993353;28;20035;-77
2021/01/25 09:17:14;;;;;;;2.45;1.52;;;;;;;;;;4977701;28;20396;-77
2021/01/25 09:19:40;;;;;;;2.78;1.30;;;;;;;;;;4993963;28;20025;-77
2021/01/25 09:22:06;;;;;;;2.50;1.30;;;;;;;;;;4977643;28;20025;-77
2021/01/25 09:24:31;;;;;;;2.53;1.50;;;;;;;;;;4993629;28;20132;-77
2021/01/25 09:26:57;;;;;;;2.60;1.70;;;;;;;;;;4976493;28;20149;-76
2021/01/25 09:29:22;;;;;;;4.05;1.83;;;;;;;;;;4995055;28;20038;-77
2021/01/25 09:31:48;;;;;;;2.42;1.40;;;;;;;;;;4995094;28;20396;-77
2021/01/25 09:34:13;;;;;;;4.18;1.85;;;;;;;;;;4993324;28;20498;-77
2021/01/25 09:36:38;;;;;;;2.78;1.45;;;;;;;;;;5009802;28;20037;-77
2021/01/25 09:39:07;;;;;;;2.67;1.40;;;;;;;;;;5009659;28;20455;-76
2021/01/25 09:41:34;;;;;;;2.55;1.48;;;;;;;;;;4994305;28;20503;-77
2021/01/25 09:43:59;;;;;;;3.03;1.65;;;;;;;;;;4992858;28;20560;-77
2021/01/25 09:46:24;;;;;;;3.33;1.75;;;;;;;;;;4991851;28;20101;-77
2021/01/25 09:48:50;;;;;;;3.17;1.60;;;;;;;;;;4978734;28;20038;-77
2021/01/25 09:51:15;;;;;;;3.88;1.70;;;;;;;;;;4992187;28;20669;-77
2021/01/25 09:53:41;;;;;;;2.38;1.38;;;;;;;;;;4993176;28;20405;-76
2021/01/25 09:56:06;;;;;;;2.53;1.70;;;;;;;;;;4977421;28;20514;-76
2021/01/25 09:58:34;;;;;;;3.30;1.35;;;;;;;;;;4991363;28;20203;-76
2021/01/25 10:00:59;;;;;;;3.60;1.83;;;;;;;;;;4977633;28;20472;-76
2021/01/25 10:03:24;;;;;;;2.38;1.50;;;;;;;;;;4992856;28;20065;-76
2021/01/25 10:05:50;;;;;;;2.13;1.70;;;;;;;;;;4975853;28;20145;-76
2021/01/25 10:08:15;;;;;;;3.35;2.13;;;;;;;;;;4977461;28;20045;-76
2021/01/25 10:10:41;;;;;;;2.58;1.85;;;;;;;;;;4993008;28;20034;-76
2021/01/25 10:13:06;;;;;;;3.03;1.95;;;;;;;;;;5010570;28;20882;-76
2021/01/25 10:15:33;;;;;;;3.95;1.80;;;;;;;;;;5000814;28;20391;-75
2021/01/25 10:17:59;;;;;;;2.63;1.80;;;;;;;;;;4994541;28;20041;-76
2021/01/25 10:20:25;;;;;;;5.13;2.25;;;;;;;;;;4994858;28;20424;-75
2021/01/25 10:22:50;;;;;;;3.08;2.05;;;;;;;;;;4978013;28;20053;-75
2021/01/25 10:25:18;;;;;;;3.65;2.20;;;;;;;;;;4993676;28;20096;-75
2021/01/25 10:27:43;;;;;;;3.30;2.40;;;;;;;;;;5010432;28;20112;-76
2021/01/25 10:30:09;;;;;;;3.67;2.28;;;;;;;;;;4993712;28;20396;-75
2021/01/25 10:32:35;;;;;;;3.17;2.00;;;;;;;;;;4994044;28;20388;-76
2021/01/25 10:35:00;;;;;;;3.47;2.38;;;;;;;;;;5003965;28;20042;-76
2021/01/25 10:37:27;;;;;;;4.40;2.15;;;;;;;;;;5010633;28;20100;-76
2021/01/25 10:39:52;;;;;;;3.80;2.88;;;;;;;;;;4978089;28;20069;-76
2021/01/25 10:42:18;;;;;;;4.07;2.75;;;;;;;;;;5016880;28;20033;-76
2021/01/25 10:44:43;;;;;;;4.72;2.80;;;;;;;;;;4979134;28;20046;-76
2021/01/25 10:47:12;;;;;;;4.72;2.15;;;;;;;;;;4994013;28;20036;-76
2021/01/25 10:49:37;;;;;;;3.95;2.95;;;;;;;;;;5009988;28;20173;-76
2021/01/25 10:52:03;;;;;;;3.83;2.60;;;;;;;;;;4993646;28;20061;-76
2021/01/25 10:54:30;;;;;;;4.20;2.60;;;;;;;;;;5010310;28;20038;-75
2021/01/25 10:56:58;;;;;;;3.83;2.88;;;;;;;;;;5001417;28;20022;-76
2021/01/25 10:59:29;;;;;;;3.63;2.30;;;;;;;;;;4997645;28;20060;-75
2021/01/25 11:01:54;;;;;;;4.95;3.20;;;;;;;;;;4993506;28;20033;-76
2021/01/25 11:04:19;;;;;;;3.50;2.83;;;;;;;;;;4993736;28;20550;-76
2021/01/25 11:06:53;;;;;;;4.30;2.92;;;;;;;;;;4991539;28;20792;-76
2021/01/25 11:09:19;;;;;;;3.97;2.92;;;;;;;;;;5020699;28;20412;-76
2021/01/25 11:11:44;;;;;;;4.80;3.05;;;;;;;;;;4974681;28;20026;-76
2021/01/25 11:14:10;;;;;;;5.43;3.20;;;;;;;;;;4980568;28;20030;-77
2021/01/25 11:16:35;;;;;;;4.82;3.20;;;;;;;;;;4993552;28;20072;-76
2021/01/25 11:19:00;;;;;;;4.30;3.10;;;;;;;;;;4991503;28;20488;-76
2021/01/25 11:21:26;;;;;;;5.03;3.13;;;;;;;;;;4976847;28;20153;-76
2021/01/25 11:23:51;;;;;;;5.82;3.63;;;;;;;;;;4993668;28;20100;-76
2021/01/25 11:26:18;;;;;;;3.50;2.50;;;;;;;;;;4963254;28;20108;-76
2021/01/25 11:28:44;;;;;;;4.05;3.25;;;;;;;;;;5007623;28;20073;-76
2021/01/25 11:31:09;;;;;;;8.30;4.35;;;;;;;;;;5013526;28;20029;-76
2021/01/25 11:33:35;;;;;;;4.90;3.63;;;;;;;;;;5001500;28;20104;-77
2021/01/25 11:36:00;;;;;;;5.93;4.00;;;;;;;;;;5016647;28;20131;-77
2021/01/25 11:38:26;;;;;;;4.70;3.40;;;;;;;;;;5017115;28;20038;-76
2021/01/25 11:40:51;;;;;;;5.07;3.53;;;;;;;;;;4996795;28;20040;-76
2021/01/25 11:43:17;;;;;;;4.70;3.35;;;;;;;;;;5022828;28;20030;-76
2021/01/25 11:45:43;;;;;;;4.40;3.45;;;;;;;;;;4996960;28;20034;-76
2021/01/25 11:48:08;;;;;;;6.75;3.70;;;;;;;;;;5013239;28;20038;-76
2021/01/25 11:50:34;;;;;;;6.20;3.65;;;;;;;;;;5015914;28;20088;-90
2021/01/25 11:52:59;;;;;;;4.65;3.72;;;;;;;;;;4983659;28;20041;-88
2021/01/25 11:55:25;;;;;;;6.63;3.55;;;;;;;;;;4961925;28;20034;-88
2021/01/25 11:57:50;;;;;;;6.57;3.75;;;;;;;;;;4993578;28;20037;-91
2021/01/25 12:00:16;;;;;;;6.20;3.60;;;;;;;;;;4962193;28;20038;-88
2021/01/25 12:02:41;;;;;;;4.40;3.22;;;;;;;;;;4983946;28;20064;-87
2021/01/25 12:05:08;;;;;;;4.88;3.63;;;;;;;;;;5000406;28;20434;-86
2021/01/25 12:07:34;;;;;;;5.43;4.18;;;;;;;;;;4984348;28;20116;-87
2021/01/25 12:09:59;;;;;;;5.20;3.75;;;;;;;;;;4966387;28;20129;-87
2021/01/25 12:12:25;;;;;;;5.32;4.25;;;;;;;;;;4986240;28;20080;-87
2021/01/25 12:14:50;;;;;;;6.80;4.28;;;;;;;;;;4980604;28;20434;-87
2021/01/25 12:17:15;;;;;;;5.45;3.47;;;;;;;;;;4986786;28;20045;-88
2021/01/25 12:19:41;;;;;;;6.47;3.80;;;;;;;;;;4963480;28;20057;-88
2021/01/25 12:22:06;;;;;;;5.07;3.80;;;;;;;;;;4964406;28;20022;-88
2021/01/25 12:24:32;;;;;;;11.27;7.32;;;;;;;;;;4975358;28;20493;-87
2021/01/25 12:26:57;;;;;;;42.33;23.27;;;;;;;;;;4975613;28;20029;-87
2021/01/25 12:29:22;;;;;;;28.52;16.30;;;;;;;;;;4979098;28;20037;-87
2021/01/25 12:31:49;;;;;;;22.95;14.40;;;;;;;;;;4993740;28;20152;-87
2021/01/25 12:34:15;;;;;;;17.23;10.25;;;;;;;;;;4973387;28;20142;-87
2021/01/25 12:36:41;;;;;;;17.40;10.10;;;;;;;;;;4980718;28;20057;-86
2021/01/25 12:39:06;;;;;;;15.00;9.50;;;;;;;;;;4961993;28;20022;-87
2021/01/25 12:41:32;;;;;;;15.52;9.82;;;;;;;;;;4963939;28;20056;-86
2021/01/25 12:43:58;;;;;;;14.68;9.13;;;;;;;;;;4977165;28;20396;-87
2021/01/25 12:46:23;;;;;;;13.82;8.93;;;;;;;;;;4979039;28;20030;-86
2021/01/25 12:48:49;;;;;;;15.30;8.68;;;;;;;;;;4979358;28;20026;-86
2021/01/25 12:51:14;;;;;;;12.43;8.95;;;;;;;;;;4996085;28;20464;-86
2021/01/25 12:53:39;;;;;;;12.35;8.20;;;;;;;;;;4995804;28;20543;-86
2021/01/25 12:56:06;;;;;;;12.05;8.02;;;;;;;;;;4983935;28;20036;-85
2021/01/25 12:58:32;;;;;;;9.88;7.35;;;;;;;;;;4975658;28;20034;-85
2021/01/25 13:00:57;;;;;;;11.15;8.05;;;;;;;;;;4976335;28;20161;-85
2021/01/25 13:03:23;;;;;;;11.25;7.50;;;;;;;;;;4976181;28;20034;-84
2021/01/25 13:05:48;;;;;;;12.45;7.93;;;;;;;;;;4992240;28;20043;-84
2021/01/25 13:08:14;;;;;;;12.40;7.35;;;;;;;;;;4979005;28;20149;-84
2021/01/25 13:10:39;;;;;;;10.20;7.45;;;;;;;;;;4975642;28;20041;-83
2021/01/25 13:13:05;;;;;;;12.95;7.90;;;;;;;;;;4959559;28;20030;-84
2021/01/25 13:15:30;;;;;;;9.10;6.70;;;;;;;;;;4997889;28;20031;-83
2021/01/25 13:17:56;;;;;;;11.27;6.40;;;;;;;;;;4998593;28;20060;-83
2021/01/25 13:20:26;;;;;;;9.63;6.45;;;;;;;;;;5001077;28;20087;-83
2021/01/25 13:22:51;;;;;;;10.93;6.80;;;;;;;;;;4979614;28;20053;-81
2021/01/25 13:25:17;;;;;;;10.68;7.00;;;;;;;;;;4977877;28;20089;-81
2021/01/25 13:27:42;;;;;;;8.75;5.95;;;;;;;;;;4975323;28;20058;-80
2021/01/25 13:30:08;;;;;;;10.68;6.32;;;;;;;;;;4972855;28;20445;-81
2021/01/25 13:32:36;;;;;;;9.15;6.00;;;;;;;;;;4977747;28;20508;-80
2021/01/25 13:35:05;;;;;;;9.63;5.40;;;;;;;;;;4991563;28;20061;-80
2021/01/25 13:37:30;;;;;;;7.88;5.60;;;;;;;;;;4959897;28;20481;-80
2021/01/25 13:39:56;;;;;;;8.90;5.90;;;;;;;;;;4975511;28;20053;-80
2021/01/25 13:42:21;;;;;;;7.25;4.82;;;;;;;;;;4995800;28;20037;-80
2021/01/25 13:44:47;;;;;;;7.00;5.10;;;;;;;;;;4980911;28;20045;-79
2021/01/25 13:47:12;;;;;;;6.82;4.63;;;;;;;;;;4979961;28;20030;-80
2021/01/25 13:49:38;;;;;;;6.63;4.88;;;;;;;;;;5016758;28;20049;-80
2021/01/25 13:52:03;;;;;;;8.35;5.57;;;;;;;;;;4978221;28;20105;-80
2021/01/25 13:54:29;;;;;;;6.22;4.57;;;;;;;;;;4978322;28;20087;-80
2021/01/25 13:56:54;;;;;;;5.95;5.00;;;;;;;;;;4985300;28;20029;-80
2021/01/25 13:59:19;;;;;;;6.50;4.80;;;;;;;;;;4987591;28;20407;-80
2021/01/25 14:01:45;;;;;;;8.80;5.03;;;;;;;;;;4995036;28;20029;-79
2021/01/25 14:04:10;;;;;;;6.22;4.95;;;;;;;;;;4994440;28;20140;-80
2021/01/25 14:06:36;;;;;;;6.57;4.60;;;;;;;;;;4994783;28;20545;-79
2021/01/25 14:09:01;;;;;;;5.95;4.10;;;;;;;;;;4974708;28;20046;-79
2021/01/25 14:11:26;;;;;;;5.63;4.05;;;;;;;;;;4976190;28;20029;-80
2021/01/25 14:13:52;;;;;;;5.85;4.10;;;;;;;;;;4977950;28;20424;-80
2021/01/25 14:16:18;;;;;;;4.95;3.53;;;;;;;;;;4978371;28;20061;-80
2021/01/25 14:18:43;;;;;;;5.82;3.58;;;;;;;;;;4978285;28;20037;-80
2021/01/25 14:21:09;;;;;;;5.82;3.80;;;;;;;;;;4977839;28;20480;-80
2021/01/25 14:23:36;;;;;;;3.85;3.10;;;;;;;;;;4994795;28;20495;-80
2021/01/25 14:26:02;;;;;;;4.63;3.63;;;;;;;;;;4992005;28;20116;-81
2021/01/25 14:28:27;;;;;;;4.38;3.00;;;;;;;;;;4990974;28;20567;-80
2021/01/25 14:30:52;;;;;;;4.65;2.97;;;;;;;;;;4985800;28;20527;-80
2021/01/25 14:33:18;;;;;;;5.60;3.33;;;;;;;;;;4975143;28;20463;-80
2021/01/25 14:35:43;;;;;;;4.50;3.42;;;;;;;;;;4991575;28;20042;-80
2021/01/25 14:38:09;;;;;;;4.00;2.80;;;;;;;;;;4990869;28;20042;-80
2021/01/25 14:40:35;;;;;;;4.88;2.72;;;;;;;;;;4974677;28;20504;-80